createdAt,value
2023-04-20T00:01:28.836Z,5.25
2023-04-20T00:04:16.065Z,4.68
2023-04-20T00:07:00.972Z,4.43
2023-04-20T00:09:46.152Z,4.65
2023-04-20T00:12:30.982Z,4.07
2023-04-20T00:15:16.307Z,4.03
2023-04-20T00:18:01.344Z,4.85
2023-04-20T00:20:46.806Z,4.43
2023-04-20T00:23:31.640Z,5.10
2023-04-20T00:26:18.802Z,4.78
2023-04-20T00:29:04.002Z,3.83
2023-04-20T00:31:49.296Z,4.25
2023-04-20T00:34:34.471Z,3.88
2023-04-20T00:37:19.668Z,4.00
2023-04-20T00:40:05.369Z,3.90
2023-04-20T00:42:50.721Z,4.25
2023-04-20T00:45:35.789Z,4.97
2023-04-20T00:48:22.073Z,3.58
2023-04-20T00:51:07.019Z,3.75
2023-04-20T00:53:51.721Z,3.83
2023-04-20T00:56:38.281Z,3.83
2023-04-20T00:59:24.269Z,3.42
2023-04-20T01:02:09.152Z,3.97
2023-04-20T01:04:54.583Z,4.15
2023-04-20T01:07:39.533Z,4.25
2023-04-20T01:10:24.543Z,4.22
2023-04-20T01:13:09.333Z,4.32
2023-04-20T01:15:59.981Z,4.45
2023-04-20T01:18:49.177Z,4.45
2023-04-20T01:21:34.334Z,5.03
2023-04-20T01:24:20.057Z,5.25
2023-04-20T01:27:04.951Z,5.05
2023-04-20T01:29:50.254Z,4.40
2023-04-20T01:32:35.393Z,4.63
2023-04-20T01:35:20.666Z,4.95
2023-04-20T01:38:05.576Z,4.95
2023-04-20T01:40:51.814Z,4.57
2023-04-20T01:43:38.220Z,4.60
2023-04-20T01:46:23.820Z,4.55
2023-04-20T01:49:08.816Z,4.63
2023-04-20T01:51:54.169Z,4.93
2023-04-20T01:54:39.296Z,4.72
2023-04-20T01:57:25.109Z,4.20
2023-04-20T02:00:11.245Z,4.53
2023-04-20T02:02:57.414Z,5.65
2023-04-20T02:05:42.557Z,5.72
2023-04-20T02:08:28.313Z,5.65
2023-04-20T02:11:13.290Z,5.82
2023-04-20T02:13:58.790Z,5.50
2023-04-20T02:16:43.542Z,6.75
2023-04-20T02:19:28.516Z,6.45
2023-04-20T02:22:13.479Z,5.72
2023-04-20T02:24:59.029Z,5.60
2023-04-20T02:27:43.869Z,6.18
2023-04-20T02:30:29.636Z,4.50
2023-04-20T02:33:14.761Z,5.18
2023-04-20T02:35:59.981Z,5.78
2023-04-20T02:38:45.104Z,5.03
2023-04-20T02:41:30.759Z,4.28
2023-04-20T02:44:15.686Z,5.90
2023-04-20T02:47:00.819Z,5.40
2023-04-20T02:49:46.058Z,5.47
2023-04-20T02:52:31.892Z,5.65
2023-04-20T02:55:16.798Z,4.55
2023-04-20T02:58:02.800Z,5.13
2023-04-20T03:00:48.302Z,4.90
2023-04-20T03:03:33.689Z,4.88
2023-04-20T03:06:19.269Z,5.20
2023-04-20T03:09:04.057Z,4.18
2023-04-20T03:11:49.928Z,4.85
2023-04-20T03:14:34.923Z,4.75
2023-04-20T03:17:20.198Z,4.40
2023-04-20T03:20:05.815Z,4.32
2023-04-20T03:22:51.029Z,4.22
2023-04-20T03:25:36.280Z,4.88
2023-04-20T03:28:21.732Z,4.90
2023-04-20T03:31:06.649Z,5.18
2023-04-20T03:33:52.052Z,4.07
2023-04-20T03:36:37.275Z,4.32
2023-04-20T03:39:22.146Z,4.88
2023-04-20T03:42:07.117Z,4.50
2023-04-20T03:44:52.869Z,4.90
2023-04-20T03:47:38.012Z,4.50
2023-04-20T03:50:22.808Z,4.82
2023-04-20T03:53:07.478Z,4.07
2023-04-20T03:55:52.568Z,4.43
2023-04-20T03:58:37.386Z,4.38
2023-04-20T04:01:22.246Z,4.43
2023-04-20T04:04:07.852Z,4.50
2023-04-20T04:06:52.552Z,3.90
2023-04-20T04:09:37.397Z,4.43
2023-04-20T04:12:22.289Z,4.82
2023-04-20T04:15:08.200Z,4.43
2023-04-20T04:17:56.091Z,4.70
2023-04-20T04:20:41.095Z,4.43
2023-04-20T04:23:26.351Z,4.40
2023-04-20T04:26:12.397Z,4.10
2023-04-20T04:28:58.030Z,4.43
2023-04-20T04:31:42.975Z,4.18
2023-04-20T04:34:29.724Z,4.22
2023-04-20T04:37:15.198Z,5.00
2023-04-20T04:40:00.576Z,4.50
2023-04-20T04:42:45.798Z,4.00
2023-04-20T04:45:31.756Z,4.35
2023-04-20T04:48:16.533Z,4.00
2023-04-20T04:51:02.450Z,4.55
2023-04-20T04:53:49.436Z,4.82
2023-04-20T04:56:34.713Z,5.15
2023-04-20T04:59:19.686Z,4.68
2023-04-20T05:02:04.889Z,4.88
2023-04-20T05:04:49.970Z,4.88
2023-04-20T05:07:35.502Z,4.85
2023-04-20T05:10:20.622Z,4.78
2023-04-20T05:13:05.723Z,4.35
2023-04-20T05:15:51.331Z,5.05
2023-04-20T05:18:36.268Z,4.63
2023-04-20T05:21:21.032Z,4.38
2023-04-20T05:24:07.365Z,4.90
2023-04-20T05:26:52.697Z,4.90
2023-04-20T05:29:38.468Z,5.00
2023-04-20T05:32:23.497Z,5.03
2023-04-20T05:35:08.934Z,4.68
2023-04-20T05:37:54.420Z,4.85
2023-04-20T05:40:39.106Z,5.90
2023-04-20T05:43:24.131Z,5.43
2023-04-20T05:46:08.954Z,5.43
2023-04-20T05:48:54.184Z,5.25
2023-04-20T05:51:39.472Z,5.50
2023-04-20T05:54:24.605Z,5.57
2023-04-20T05:57:11.993Z,5.10
2023-04-20T05:59:57.021Z,5.43
2023-04-20T06:02:43.318Z,5.80
2023-04-20T06:05:28.814Z,5.80
2023-04-20T06:08:14.080Z,6.13
2023-04-20T06:10:59.033Z,5.95
2023-04-20T06:13:44.434Z,5.53
2023-04-20T06:16:29.577Z,5.80
2023-04-20T06:19:14.314Z,7.15
2023-04-20T06:22:01.004Z,6.30
2023-04-20T06:24:46.580Z,5.88
2023-04-20T06:27:32.604Z,6.22
2023-04-20T06:30:17.655Z,7.03
2023-04-20T06:33:03.244Z,5.55
2023-04-20T06:35:48.007Z,6.18
2023-04-20T06:38:32.825Z,6.15
2023-04-20T06:41:17.946Z,6.97
2023-04-20T06:44:02.852Z,5.63
2023-04-20T06:46:47.630Z,6.60
2023-04-20T06:49:32.487Z,6.72
2023-04-20T06:52:17.384Z,6.35
2023-04-20T06:55:02.516Z,6.55
2023-04-20T06:57:47.666Z,6.80
2023-04-20T07:00:32.570Z,6.00
2023-04-20T07:03:18.895Z,6.95
2023-04-20T07:06:04.713Z,6.40
2023-04-20T07:08:49.898Z,6.45
2023-04-20T07:11:35.463Z,5.78
2023-04-20T07:14:20.880Z,6.93
2023-04-20T07:17:06.131Z,5.82
2023-04-20T07:19:52.365Z,6.00
2023-04-20T07:22:38.867Z,5.85
2023-04-20T07:25:24.831Z,5.63
2023-04-20T07:28:09.732Z,6.78
2023-04-20T07:30:54.683Z,6.38
2023-04-20T07:33:40.008Z,6.93
2023-04-20T07:36:25.049Z,6.05
2023-04-20T07:39:10.159Z,5.82
2023-04-20T07:41:55.097Z,6.05
2023-04-20T07:44:41.410Z,5.82
2023-04-20T07:47:26.661Z,6.68
2023-04-20T07:50:11.775Z,5.43
2023-04-20T07:52:56.829Z,5.10
2023-04-20T07:55:41.794Z,6.32
2023-04-20T07:58:26.565Z,5.45
2023-04-20T08:01:11.457Z,5.90
2023-04-20T08:03:56.852Z,5.43
2023-04-20T08:06:42.312Z,5.25
2023-04-20T08:09:30.692Z,5.07
2023-04-20T08:12:15.700Z,5.72
2023-04-20T08:15:01.915Z,5.68
2023-04-20T08:17:47.017Z,5.97
2023-04-20T08:23:27.632Z,5.75
2023-04-20T08:26:16.590Z,6.00
2023-04-20T08:29:02.716Z,5.80
2023-04-20T08:31:50.040Z,5.55
2023-04-20T08:34:36.323Z,6.25
2023-04-20T08:37:21.437Z,6.38
2023-04-20T08:40:06.968Z,5.90
2023-04-20T08:42:52.164Z,5.65
2023-04-20T08:45:37.542Z,5.57
2023-04-20T08:48:23.321Z,5.88
2023-04-20T08:51:08.765Z,6.10
2023-04-20T08:53:55.971Z,5.40
2023-04-20T08:56:43.785Z,6.45
2023-04-20T08:59:30.321Z,7.57
2023-04-20T09:02:15.703Z,5.85
2023-04-20T09:05:03.013Z,6.05
2023-04-20T09:07:53.260Z,5.45
2023-04-20T09:10:41.174Z,5.82
2023-04-20T09:13:25.836Z,5.93
2023-04-20T09:16:12.850Z,5.53
2023-04-20T09:19:00.307Z,5.85
2023-04-20T09:21:51.440Z,5.90
2023-04-20T09:24:38.818Z,5.80
2023-04-20T09:30:11.868Z,5.15
2023-04-20T09:33:08.445Z,5.85
2023-04-20T09:35:53.816Z,5.78
2023-04-20T09:38:38.728Z,5.03
2023-04-20T09:41:23.950Z,5.25
2023-04-20T09:44:10.766Z,5.18
2023-04-20T09:46:56.523Z,5.25
2023-04-20T09:49:43.632Z,5.75
2023-04-20T09:52:29.275Z,6.35
2023-04-20T09:55:14.224Z,5.65
2023-04-20T09:58:02.925Z,5.43
2023-04-20T10:00:47.900Z,5.72
2023-04-20T10:03:34.770Z,5.45
2023-04-20T10:06:24.734Z,5.93
2023-04-20T10:09:22.960Z,5.03
2023-04-20T10:12:09.609Z,5.28
2023-04-20T10:14:58.128Z,5.28
2023-04-20T10:17:43.347Z,5.28
2023-04-20T10:20:29.048Z,6.13
2023-04-20T10:23:18.879Z,5.65
2023-04-20T10:26:04.027Z,5.63
2023-04-20T10:28:49.555Z,5.38
2023-04-20T10:31:43.327Z,5.60
2023-04-20T10:34:32.715Z,4.97
2023-04-20T10:37:17.514Z,6.22
2023-04-20T10:40:07.919Z,5.65
2023-04-20T10:42:53.164Z,5.85
2023-04-20T10:45:38.572Z,5.43
2023-04-20T10:48:23.642Z,5.03
2023-04-20T10:51:10.021Z,5.82
2023-04-20T10:54:06.700Z,5.40
2023-04-20T10:56:52.931Z,4.90
2023-04-20T10:59:41.393Z,4.80
2023-04-20T11:02:27.969Z,5.00
2023-04-20T11:05:13.195Z,5.13
2023-04-20T11:08:01.006Z,5.00
2023-04-20T11:10:46.256Z,4.75
2023-04-20T11:13:32.808Z,4.28
2023-04-20T11:16:19.206Z,4.35
2023-04-20T11:19:04.852Z,4.90
2023-04-20T11:21:49.622Z,4.70
2023-04-20T11:24:35.879Z,4.50
2023-04-20T11:27:25.023Z,4.20
2023-04-20T11:30:10.345Z,4.85
2023-04-20T11:32:55.625Z,3.95
2023-04-20T11:35:44.626Z,4.95
2023-04-20T11:38:35.191Z,4.53
2023-04-20T11:41:20.326Z,4.70
2023-04-20T11:44:06.977Z,4.80
2023-04-20T11:46:55.138Z,4.53
2023-04-20T11:49:40.155Z,5.30
2023-04-20T11:52:25.728Z,5.28
2023-04-20T11:55:11.346Z,5.68
2023-04-20T11:57:56.223Z,5.32
2023-04-20T12:00:41.122Z,5.10
2023-04-20T12:03:28.049Z,5.90
2023-04-20T12:06:14.205Z,6.22
2023-04-20T12:08:59.604Z,5.68
2023-04-20T12:11:44.693Z,6.03
2023-04-20T12:14:29.783Z,5.65
2023-04-20T12:17:15.026Z,5.40
2023-04-20T12:20:00.493Z,5.22
2023-04-20T12:22:45.868Z,6.10
2023-04-20T12:25:30.817Z,5.20
2023-04-20T12:28:15.848Z,5.35
2023-04-20T12:31:00.997Z,6.63
2023-04-20T12:33:48.534Z,5.15
2023-04-20T12:36:35.111Z,6.80
2023-04-20T12:39:20.721Z,6.60
2023-04-20T12:42:05.921Z,6.85
2023-04-20T12:44:54.124Z,7.13
2023-04-20T12:47:40.983Z,6.97
2023-04-20T12:50:26.090Z,7.70
2023-04-20T12:53:11.484Z,6.85
2023-04-20T12:56:01.109Z,8.18
2023-04-20T12:58:47.076Z,7.80
2023-04-20T13:01:32.259Z,7.72
2023-04-20T13:04:17.511Z,7.53
2023-04-20T13:07:03.119Z,7.20
2023-04-20T13:09:48.303Z,8.45
2023-04-20T13:12:33.189Z,7.95
2023-04-20T13:15:31.777Z,7.65
2023-04-20T13:18:24.503Z,7.65
2023-04-20T13:21:09.522Z,7.10
2023-04-20T13:23:55.506Z,6.63
2023-04-20T13:29:28.519Z,4.18
2023-04-20T13:32:13.767Z,5.32
2023-04-20T13:35:00.588Z,5.00
2023-04-20T13:37:46.082Z,4.93
2023-04-20T13:40:31.215Z,5.03
2023-04-20T13:43:16.200Z,5.40
2023-04-20T13:46:02.048Z,4.82
2023-04-20T13:48:47.157Z,5.28
2023-04-20T13:51:32.490Z,5.25
2023-04-20T13:54:18.427Z,5.30
2023-04-20T13:57:03.781Z,5.38
2023-04-20T13:59:48.958Z,4.88
2023-04-20T14:02:33.982Z,5.30
2023-04-20T14:05:19.408Z,5.32
2023-04-20T14:08:06.820Z,5.47
2023-04-20T14:10:52.013Z,5.90
2023-04-20T14:13:37.739Z,5.20
2023-04-20T14:16:25.220Z,6.20
2023-04-20T14:19:10.188Z,6.03
2023-04-20T14:21:54.968Z,6.22
2023-04-20T14:24:40.676Z,6.07
2023-04-20T14:27:25.865Z,7.55
2023-04-20T14:30:11.430Z,8.18
2023-04-20T14:32:58.171Z,8.10
2023-04-20T14:35:43.565Z,7.90
2023-04-20T14:38:28.465Z,8.48
2023-04-20T14:41:13.401Z,8.60
2023-04-20T14:43:58.378Z,8.00
2023-04-20T14:46:43.889Z,7.55
2023-04-20T14:49:31.364Z,7.00
2023-04-20T14:52:16.424Z,7.95
2023-04-20T14:55:01.280Z,7.95
2023-04-20T14:57:46.202Z,8.23
2023-04-20T15:00:32.557Z,7.90
2023-04-20T15:03:18.296Z,7.05
2023-04-20T15:06:03.665Z,7.53
2023-04-20T15:08:49.080Z,7.60
2023-04-20T15:11:34.038Z,7.28
2023-04-20T15:14:20.313Z,7.13
2023-04-20T15:17:05.771Z,7.03
2023-04-20T15:19:50.547Z,6.03
2023-04-20T15:22:36.910Z,6.93
2023-04-20T15:25:22.756Z,5.85
2023-04-20T15:28:07.895Z,5.97
2023-04-20T15:30:53.077Z,6.78
2023-04-20T15:33:38.218Z,6.10
2023-04-20T15:36:23.098Z,6.38
2023-04-20T15:39:08.283Z,6.53
2023-04-20T15:41:53.571Z,6.03
2023-04-20T15:44:40.680Z,6.60
2023-04-20T15:47:25.533Z,5.85
2023-04-20T15:50:11.222Z,6.70
2023-04-20T15:52:56.436Z,6.70
2023-04-20T15:55:42.350Z,6.30
2023-04-20T15:58:28.789Z,7.07
2023-04-20T16:01:13.995Z,5.80
2023-04-20T16:03:59.304Z,6.13
2023-04-20T16:06:44.551Z,6.28
2023-04-20T16:09:29.350Z,6.78
2023-04-20T16:12:14.971Z,6.18
2023-04-20T16:15:01.159Z,6.35
2023-04-20T16:17:46.721Z,5.85
2023-04-20T16:20:31.765Z,5.97
2023-04-20T16:23:19.219Z,5.88
2023-04-20T16:26:04.461Z,6.57
2023-04-20T16:28:49.823Z,6.40
2023-04-20T16:31:36.533Z,5.93
2023-04-20T16:34:21.522Z,7.50
2023-04-20T16:37:06.642Z,6.97
2023-04-20T16:39:51.838Z,6.53
2023-04-20T16:42:36.966Z,6.72
2023-04-20T16:45:22.055Z,6.75
2023-04-20T16:48:08.155Z,7.85
2023-04-20T16:50:53.177Z,6.82
2023-04-20T16:53:38.130Z,8.05
2023-04-20T16:56:22.955Z,8.05
2023-04-20T16:59:09.146Z,8.02
2023-04-20T17:01:54.372Z,7.18
2023-04-20T17:04:39.573Z,7.75
2023-04-20T17:07:24.814Z,8.48
2023-04-20T17:10:10.040Z,7.93
2023-04-20T17:12:57.696Z,7.43
2023-04-20T17:15:45.140Z,8.48
2023-04-20T17:21:17.877Z,9.75
2023-04-20T17:24:03.393Z,7.55
2023-04-20T17:26:55.284Z,7.90
2023-04-20T17:29:43.146Z,8.98
2023-04-20T17:32:28.562Z,8.13
2023-04-20T17:35:14.017Z,8.32
2023-04-20T17:37:59.720Z,8.15
2023-04-20T17:40:45.321Z,7.93
2023-04-20T17:43:33.579Z,7.97
2023-04-20T17:46:18.881Z,8.20
2023-04-20T17:49:05.997Z,7.43
2023-04-20T17:51:51.424Z,8.50
2023-04-20T17:54:36.767Z,7.82
2023-04-20T17:57:24.778Z,7.35
2023-04-20T18:00:12.596Z,7.50
2023-04-20T18:02:58.954Z,7.78
2023-04-20T18:05:45.639Z,7.72
2023-04-20T18:08:30.755Z,8.48
2023-04-20T18:11:16.010Z,7.82
2023-04-20T18:14:01.269Z,8.23
2023-04-20T18:16:46.411Z,7.32
2023-04-20T18:19:32.634Z,6.72
2023-04-20T18:22:18.094Z,8.55
2023-04-20T18:25:04.673Z,7.50
2023-04-20T18:27:49.471Z,7.95
2023-04-20T18:30:34.828Z,7.05
2023-04-20T18:33:20.396Z,7.20
2023-04-20T18:36:09.642Z,7.70
2023-04-20T18:38:55.197Z,7.68
2023-04-20T18:41:40.658Z,8.07
2023-04-20T18:44:28.103Z,9.13
2023-04-20T18:47:17.571Z,8.88
2023-04-20T18:50:02.748Z,8.73
2023-04-20T18:52:50.952Z,9.73
2023-04-20T18:55:37.600Z,7.25
2023-04-20T18:58:22.986Z,8.13
2023-04-20T19:01:07.857Z,9.40
2023-04-20T19:03:53.290Z,7.65
2023-04-20T19:06:39.803Z,9.52
2023-04-20T19:09:25.850Z,8.75
2023-04-20T19:12:13.638Z,8.75
2023-04-20T19:15:01.490Z,8.68
2023-04-20T19:17:47.511Z,9.45
2023-04-20T19:20:35.808Z,9.13
2023-04-20T19:23:21.979Z,8.77
2023-04-20T19:26:07.294Z,9.38
2023-04-20T19:28:54.347Z,9.10
2023-04-20T19:31:40.637Z,8.73
2023-04-20T19:34:25.424Z,9.75
2023-04-20T19:37:10.589Z,9.48
2023-04-20T19:39:56.090Z,8.93
2023-04-20T19:42:42.486Z,9.75
2023-04-20T19:45:27.597Z,9.93
2023-04-20T19:48:12.635Z,10.25
2023-04-20T19:51:01.956Z,9.70
2023-04-20T19:53:46.949Z,9.02
2023-04-20T19:56:35.154Z,9.75
2023-04-20T19:59:20.687Z,9.70
2023-04-20T20:02:06.191Z,9.80
2023-04-20T20:04:55.504Z,8.68
2023-04-20T20:07:42.627Z,9.45
2023-04-20T20:10:27.361Z,9.38
2023-04-20T20:13:15.658Z,8.40
2023-04-20T20:16:00.642Z,10.25
2023-04-20T20:18:48.041Z,9.10
2023-04-20T20:21:35.665Z,8.40
2023-04-20T20:26:47.224Z,9.55
2023-04-20T20:29:32.533Z,9.45
2023-04-20T20:32:17.465Z,8.05
2023-04-20T20:35:04.518Z,10.38
2023-04-20T20:37:50.048Z,10.30
2023-04-20T20:40:35.569Z,10.05
2023-04-20T20:43:24.310Z,11.35
2023-04-20T20:46:11.882Z,12.07
2023-04-20T20:49:00.784Z,11.90
2023-04-20T20:51:46.584Z,11.60
2023-04-20T20:54:31.871Z,12.82
2023-04-20T20:57:17.850Z,9.80
2023-04-20T21:00:07.712Z,11.13
2023-04-20T21:02:52.866Z,10.65
2023-04-20T21:05:37.745Z,10.05
2023-04-20T21:08:24.890Z,10.05
2023-04-20T21:11:10.170Z,10.50
2023-04-20T21:14:02.090Z,9.30
2023-04-20T21:16:47.561Z,9.50
2023-04-20T21:19:32.792Z,10.00
2023-04-20T21:22:18.283Z,10.45
2023-04-20T21:25:03.798Z,9.55
2023-04-20T21:27:49.101Z,10.13
2023-04-20T21:30:34.309Z,8.93
2023-04-20T21:33:21.771Z,10.88
2023-04-20T21:38:53.414Z,8.95
2023-04-20T21:41:38.622Z,9.52
2023-04-20T21:44:24.643Z,8.30
2023-04-20T21:47:09.623Z,9.38
2023-04-20T21:49:54.923Z,10.15
2023-04-20T21:52:39.962Z,8.93
2023-04-20T21:55:25.255Z,8.50
2023-04-20T21:58:11.173Z,8.23
2023-04-20T22:00:56.520Z,8.90
2023-04-20T22:03:41.740Z,9.00
2023-04-20T22:06:26.973Z,8.73
2023-04-20T22:09:11.756Z,8.23
2023-04-20T22:11:58.581Z,8.52
2023-04-20T22:14:43.469Z,9.57
2023-04-20T22:17:30.094Z,8.82
2023-04-20T22:20:16.577Z,8.48
2023-04-20T22:23:02.025Z,8.55
2023-04-20T22:25:47.761Z,8.52
2023-04-20T22:28:33.430Z,9.23
2023-04-20T22:31:18.696Z,8.70
2023-04-20T22:34:03.754Z,8.75
2023-04-20T22:36:48.998Z,9.20
2023-04-20T22:39:34.061Z,8.25
2023-04-20T22:42:19.320Z,8.20
2023-04-20T22:45:04.762Z,8.60
2023-04-20T22:47:50.101Z,7.40
2023-04-20T22:50:35.123Z,8.23
2023-04-20T22:53:20.852Z,8.18
2023-04-20T22:56:07.333Z,7.70
2023-04-20T22:58:52.903Z,7.90
2023-04-20T23:01:38.070Z,7.38
2023-04-20T23:04:23.257Z,7.75
2023-04-20T23:07:08.268Z,7.80
2023-04-20T23:09:53.571Z,7.57
2023-04-20T23:12:38.368Z,7.25
2023-04-20T23:15:23.322Z,8.38
2023-04-20T23:18:08.416Z,8.23
2023-04-20T23:20:53.534Z,8.27
2023-04-20T23:23:38.315Z,7.68
2023-04-20T23:26:24.223Z,7.55
2023-04-20T23:29:09.674Z,7.72
2023-04-20T23:31:55.072Z,7.38
2023-04-20T23:34:40.169Z,7.85
2023-04-20T23:37:25.217Z,7.50
2023-04-20T23:40:10.449Z,7.72
2023-04-20T23:42:55.378Z,7.65
2023-04-20T23:45:40.366Z,7.15
2023-04-20T23:48:25.679Z,7.55
2023-04-20T23:51:10.878Z,7.72
2023-04-20T23:53:56.062Z,7.25
2023-04-20T23:56:41.071Z,7.35
2023-04-20T23:59:26.704Z,8.15
